Flight Track Log - Related Links

Times and Time Zones

All times are in EDT time to prevent confusion due to time zone crossing. See the SWA1787 flight status page for this flight to view local times or setup timezone preferences in your user account.

Time Position Orientation Groundspeed Altitude Reporting Facility
EDT Latitude Longitude Course Direction KTS km/h feet Rate Location/Type
Sat 16h10:28 41.7061 -71.4419 267° West 153 283 800  Level Boston Center
Sat 16h11:47 41.7028 -71.5336 267° West 221 409 4.300 2.763 Climbing Boston Center
Sat 16h12:47 41.7447 -71.5831 319° Northwest 222 410 7.200 2.617 Climbing Boston Center
Sat 16h14:00 41.8122 -71.6658 318° Northwest 243 451 10.100 1.925 Climbing Boston Center
Sat 16h15:01 41.8461 -71.7628 295° West 325 602 11.500 2.269 Climbing Boston Center
Sat 16h15:59 41.8614 -71.9022 278° West 341 631 14.600 2.847 Climbing Boston Center
Sat 16h16:59 41.8744 -72.0469 277° West 371 687 17.100 2.420 Climbing Boston Center
Sat 16h17:58 41.8875 -72.1725 278° West 386 715 19.400 2.400 Climbing Boston Center
Sat 16h18:59 41.8564 -72.3064 253° West 375 695 21.900 2.281 Climbing Boston Center
Sat 16h19:59 41.8003 -72.4344 240° Southwest 377 698 24.000 2.033 Climbing Boston Center
Sat 16h21:00 41.7417 -72.5681 240° Southwest 389 721 26.000 1.934 Climbing Boston Center
Sat 16h22:00 41.6769 -72.7097 239° Southwest 403 747 27.900 1.780 Climbing Boston Center
Sat 16h22:58 41.6139 -72.8483 239° Southwest 416 771 29.500 1.600 Climbing Boston Center
Sat 16h24:00 41.5531 -72.9839 239° Southwest 429 795 31.100 1.525 Climbing Boston Center
Sat 16h25:00 41.4961 -73.1136 240° Southwest 423 784 32.600 1.809 Climbing Boston Center
Sat 16h27:19 41.3525 -73.4272 239° Southwest 434 803 37.100 1.590 Climbing New York Center
Sat 16h28:20 41.2975 -73.5547 240° Southwest 422 782 37.900 393 Climbing New York Center
Sat 16h29:21 41.2278 -73.6789 233° Southwest 422 782 37.900  Level New York Center
Sat 16h30:19 41.1583 -73.7942 231° Southwest 422 782 37.900  Level New York Center
Sat 16h31:21 41.0864 -73.9150 232° Southwest 422 782 37.900  Level New York Center
Sat 16h32:18 41.0144 -74.0325 231° Southwest 417 772 37.900  Level New York Center
Sat 16h33:18 40.9467 -74.1500 233° Southwest 417 772 37.900  Level New York Center
Sat 16h34:19 40.8811 -74.2511 229° Southwest 411 761 37.900  Level New York Center
Sat 16h35:20 40.8089 -74.3681 231° Southwest 411 761 37.900  Level New York Center
Sat 16h36:18 40.7408 -74.4794 231° Southwest 411 761 37.900  Level New York Center
Sat 16h37:19 40.6706 -74.5961 232° Southwest 411 761 37.900  Level New York Center
Sat 16h38:18 40.5956 -74.7231 232° Southwest 411 761 37.900  Level New York Center
Sat 16h39:18 40.5231 -74.8308 229° Southwest 411 761 37.900 49 Level New York Center
Sat 16h40:20 40.4464 -74.9381 227° Southwest 411 761 38.000  Climbing New York Center
Sat 16h41:21 40.3694 -75.0453 227° Southwest 411 761 37.900 -51 Descending New York Center
Sat 16h42:18 40.2925 -75.1547 227° Southwest 411 761 37.900  Level New York Center
Sat 16h43:19 40.2178 -75.2614 227° Southwest 406 752 37.900  Level New York Center
Sat 16h44:19 40.1428 -75.3678 227° Southwest 406 752 37.900 37 Level New York Center
Sat 16h46:00 40.0197 -75.5344 226° Southwest 395 732 38.000  Climbing Washington Center
Sat 16h47:00 39.9428 -75.6403 227° Southwest 401 742 37.900  Descending Washington Center
Sat 16h48:00 39.8678 -75.7536 229° Southwest 401 742 38.000  Climbing Washington Center
Sat 16h49:01 39.7967 -75.8669 231° Southwest 406 752 37.900  Descending Washington Center
Sat 16h50:01 39.7275 -75.9772 231° Southwest 406 752 38.000 51 Climbing Washington Center
Sat 16h50:59 39.6564 -76.0903 231° Southwest 406 752 38.000 -50 Level Washington Center
Sat 16h52:00 39.5850 -76.2028 231° Southwest 406 752 37.900  Descending Washington Center
Sat 16h53:01 39.5136 -76.3150 231° Southwest 406 752 38.000  Climbing Washington Center
Sat 16h54:01 39.4419 -76.4247 230° Southwest 401 742 37.900  Descending Washington Center
Sat 16h54:59 39.3703 -76.5339 230° Southwest 401 742 38.000 51 Climbing Washington Center
Sat 16h55:59 39.3006 -76.6403 230° Southwest 401 742 38.000  Level Washington Center
Sat 16h57:00 39.2308 -76.7492 230° Southwest 401 742 38.000  Level Washington Center
Sat 16h58:01 39.1611 -76.8606 231° Southwest 401 742 38.000  Level Washington Center
Sat 16h58:59 39.0911 -76.9661 230° Southwest 396 734 38.000  Level Washington Center
Sat 17h00:00 39.0169 -77.0689 227° Southwest 402 745 38.000  Level Washington Center
Sat 17h01:00 38.9514 -77.1425 221° Southwest 395 732 38.000  Level Washington Center
Sat 17h02:00 38.8478 -77.2494 219° Southwest 395 732 38.000  Level Washington Center
Sat 17h03:01 38.7631 -77.3461 222° Southwest 406 752 38.000  Level Washington Center
Sat 17h04:02 38.6803 -77.4347 220° Southwest 406 752 38.000  Level Washington Center
Sat 17h04:59 38.5956 -77.5256 220° Southwest 406 752 38.000  Level Washington Center
Sat 17h06:00 38.5147 -77.6164 221° Southwest 406 752 38.000  Level Washington Center
Sat 17h07:00 38.4300 -77.7067 220° Southwest 406 752 38.000  Level Washington Center
Sat 17h08:01 38.3469 -77.7969 220° Southwest 406 752 38.000  Level Washington Center
Sat 17h09:01 38.2556 -77.8947 220° Southwest 401 742 38.000  Level Washington Center
Sat 17h09:59 38.1722 -77.9847 220° Southwest 401 742 38.000  Level Washington Center
Sat 17h10:59 38.0892 -78.0744 217° Southwest 396 734 38.000  Level Washington Center
Sat 17h11:00 38.0825 -78.0710 217° Southwest  Level FlightAware Approximate
Sat 17h11:59 38.0061 -78.1639 220° Southwest 396 734 38.000  Level Washington Center
Sat 17h13:00 37.9208 -78.2453 217° Southwest 391 724 38.000  Level Washington Center
Sat 17h14:01 37.8311 -78.3314 217° Southwest 391 724 38.000  Level Washington Center
Sat 17h14:59 37.7439 -78.4150 217° Southwest 401 742 38.000  Level Washington Center
Sat 17h15:59 37.6628 -78.4906 216° Southwest 401 742 38.000  Level Washington Center
Sat 17h17:00 37.5731 -78.5736 216° Southwest 401 742 38.000  Level Washington Center
Sat 17h18:00 37.4856 -78.6567 217° Southwest 401 742 38.000  Level Washington Center
Sat 17h19:01 37.3978 -78.7394 217° Southwest 401 742 38.000  Level Washington Center
Sat 17h20:01 37.3081 -78.8192 215° Southwest 401 742 38.000  Level Washington Center
Sat 17h20:59 37.2139 -78.9067 217° Southwest 401 742 38.000  Level Washington Center
Sat 17h21:59 37.1239 -78.9911 217° Southwest 401 742 38.000  Level Washington Center
Sat 17h23:00 37.0361 -79.0733 217° Southwest 401 742 38.000  Level Washington Center
Sat 17h24:01 36.9461 -79.1550 216° Southwest 401 742 38.000  Level Washington Center
Sat 17h24:59 36.8558 -79.2364 216° Southwest 401 742 38.000  Level Washington Center
Sat 17h26:42 36.6997 -79.3808 217° Southwest 406 752 38.000  Level Atlanta Center
Sat 17h27:42 36.6111 -79.4611 216° Southwest 406 752 38.000  Level Atlanta Center
Sat 17h28:42 36.5306 -79.5356 217° Southwest 406 752 38.000  Level Atlanta Center
Sat 17h29:42 36.4414 -79.6128 215° Southwest 406 752 38.000  Level Atlanta Center
Sat 17h30:42 36.3528 -79.6950 217° Southwest 406 752 38.000  Level Atlanta Center
Sat 17h31:42 36.2639 -79.7769 217° Southwest 401 742 38.000  Level Atlanta Center
Sat 17h32:42 36.1667 -79.8644 216° Southwest 401 742 38.000  Level Atlanta Center
Sat 17h33:42 36.0775 -79.9436 216° Southwest 401 742 38.000  Level Atlanta Center
Sat 17h34:42 35.9775 -80.0078 207° Southwest 401 742 38.000  Level Atlanta Center
Sat 17h35:42 35.8728 -80.0617 203° Southwest 406 752 38.000  Level Atlanta Center
Sat 17h36:42 35.7783 -80.1097 202° Southwest 412 763 38.000  Level Atlanta Center
Sat 17h37:42 35.6594 -80.1692 202° Southwest 412 763 38.000  Level Atlanta Center
Sat 17h38:42 35.5547 -80.2225 203° Southwest 412 763 38.000  Level Atlanta Center
Sat 17h39:42 35.4497 -80.2758 202° Southwest 412 763 38.000  Level Atlanta Center
Sat 17h40:42 35.3408 -80.3292 202° Southwest 412 763 38.000  Level Atlanta Center
Sat 17h41:42 35.2339 -80.3822 202° Southwest 412 763 38.000  Level Atlanta Center
Sat 17h42:42 35.1394 -80.4297 202° Southwest 419 776 38.000  Level Atlanta Center
Sat 17h45:10 34.8581 -80.5675 202° Southwest 433 801 38.000  Level Jacksonville Center
Sat 17h46:10 34.7589 -80.6258 206° Southwest 415 769 38.000  Level Jacksonville Center
Sat 17h47:10 34.6492 -80.6717 199° South 410 760 38.000  Level Jacksonville Center
Sat 17h48:10 34.5378 -80.7300 203° Southwest 431 798 38.000  Level Jacksonville Center
Sat 17h49:10 34.4300 -80.7781 200° South 431 798 38.000  Level Jacksonville Center
Sat 17h50:10 34.3225 -80.8358 204° Southwest 431 798 38.000  Level Jacksonville Center
Sat 17h51:10 34.2189 -80.8811 200° South 420 777 38.000  Level Jacksonville Center
Sat 17h52:10 34.1111 -80.9336 202° Southwest 420 777 38.000  Level Jacksonville Center
Sat 17h53:10 34.0014 -80.9864 202° Southwest 420 777 38.000  Level Jacksonville Center
Sat 17h54:10 33.8850 -81.0139 191° South 425 787 38.000  Level Jacksonville Center
Sat 17h55:10 33.7661 -81.0089 178° South 425 787 38.000 -50 Level Jacksonville Center
Sat 17h56:10 33.6467 -80.9864 171° South 425 787 37.900  Descending Jacksonville Center
Sat 17h57:10 33.5281 -81.0014 186° South 425 787 38.000  Climbing Jacksonville Center
Sat 17h58:10 33.4181 -81.0536 202° Southwest 419 776 37.900  Descending Jacksonville Center
Sat 17h59:10 33.3083 -81.1081 203° Southwest 424 785 38.000 50 Climbing Jacksonville Center
Sat 18h00:10 33.1983 -81.1575 201° Southwest 424 785 38.000 -50 Level Jacksonville Center
Sat 18h01:10 33.0886 -81.2117 202° Southwest 430 797 37.900 -50 Descending Jacksonville Center
Sat 18h02:10 32.9786 -81.2631 201° Southwest 430 797 37.900  Level Jacksonville Center
Sat 18h03:10 32.8664 -81.3122 200° South 430 797 37.900 50 Level Jacksonville Center
Sat 18h04:10 32.7586 -81.3658 203° Southwest 430 797 38.000 50 Climbing Jacksonville Center
Sat 18h05:10 32.6506 -81.4172 202° Southwest 430 797 38.000  Level Jacksonville Center
Sat 18h06:10 32.5406 -81.4706 202° Southwest 430 797 38.000  Level Jacksonville Center
Sat 18h07:10 32.4408 -81.5164 201° Southwest 430 797 38.000  Level Jacksonville Center
Sat 18h08:10 32.3161 -81.5700 200° South 436 808 38.000  Level Jacksonville Center
Sat 18h09:10 32.2122 -81.6108 198° South 442 819 38.000  Level Jacksonville Center
Sat 18h10:10 32.0875 -81.6664 201° Southwest 442 819 38.000  Level Jacksonville Center
Sat 18h11:10 31.9753 -81.7169 201° Southwest 436 808 38.000  Level Jacksonville Center
Sat 18h12:10 31.8714 -81.7622 200° South 441 816 38.000  Level Jacksonville Center
Sat 18h13:10 31.7486 -81.8200 202° Southwest 435 806 38.000  Level Jacksonville Center
Sat 18h14:10 31.6467 -81.8700 203° Southwest 435 806 38.000  Level Jacksonville Center
Sat 18h15:10 31.5219 -81.9250 201° Southwest 435 806 38.000  Level Jacksonville Center
Sat 18h16:10 31.3989 -81.9531 191° South 443 821 38.000  Level Jacksonville Center
Sat 18h17:10 31.2925 -81.9808 193° South 448 830 38.000 -50 Level Jacksonville Center
Sat 18h18:10 31.1697 -82.0089 191° South 448 830 37.900  Descending Jacksonville Center
Sat 18h19:10 31.0467 -82.0342 190° South 448 830 38.000 50 Climbing Jacksonville Center
Sat 18h20:10 30.9111 -82.0644 191° South 448 830 38.000 -50 Level Jacksonville Center
Sat 18h21:10 30.7903 -82.0922 191° South 448 830 37.900  Descending Jacksonville Center
Sat 18h22:10 30.6714 -82.1197 191° South 448 830 38.000  Climbing Jacksonville Center
Sat 18h23:10 30.5503 -82.1425 189° South 448 830 37.900 -50 Descending Jacksonville Center
Sat 18h24:10 30.4294 -82.1697 191° South 448 830 37.900 -250 Level Jacksonville Center
Sat 18h25:10 30.3064 -82.1972 191° South 448 830 37.400 -750 Descending Jacksonville Center
Sat 18h26:10 30.1833 -82.2244 191° South 448 830 36.400 -950 Descending Jacksonville Center
Sat 18h27:10 30.0625 -82.2494 190° South 448 830 35.500 -900 Descending Jacksonville Center
Sat 18h28:10 29.9331 -82.2839 193° South 461 855 34.600 -1.200 Descending Jacksonville Center
Sat 18h29:10 29.8100 -82.3133 192° South 461 855 33.100 -2.200 Descending Jacksonville Center
Sat 18h30:10 29.6869 -82.3356 189° South 461 855 30.200 -3.100 Descending Jacksonville Center
Sat 18h31:10 29.5597 -82.3531 187° South 467 864 26.900 -1.700 Descending Jacksonville Center
Sat 18h32:10 29.4322 -82.3394 175° South 461 855 26.800 -650 Descending Jacksonville Center
Sat 18h33:10 29.3194 -82.3281 175° South 455 843 25.600 -1.850 Descending Jacksonville Center
Sat 18h34:10 29.2006 -82.3122 173° South 455 843 23.100 -2.500 Descending Jacksonville Center
Sat 18h35:10 29.0836 -82.2986 174° South 438 811 20.600 -2.400 Descending Jacksonville Center
Sat 18h36:10 28.9750 -82.2850 174° South 419 776 18.300 -2.350 Descending Jacksonville Center
Sat 18h37:10 28.8664 -82.2739 175° South 406 752 15.900 -1.921 Descending Jacksonville Center
Sat 18h39:08 28.6500 -82.2500 174° South 369 684 12.600 -1.519 Descending Tampa TRACON
Sat 18h39:44 28.6000 -82.2500 180° South 369 684 12.000 -941 Descending Tampa TRACON
Sat 18h40:50 28.4833 -82.2833 194° South 358 663 11.000 -571 Descending Tampa TRACON
Sat 18h41:50 28.3833 -82.3000 188° South 352 652 10.800 -579 Descending Tampa TRACON
Sat 18h42:44 28.3000 -82.3333 199° South 343 636 9.900 -1.091 Descending Tampa TRACON
Sat 18h43:51 28.2167 -82.3500 190° South 294 544 8.600 -1.323 Descending Tampa TRACON
Sat 18h44:51 28.1333 -82.3667 190° South 289 536 7.100 -1.513 Descending Tampa TRACON
Sat 18h45:50 28.0667 -82.4000 204° Southwest 283 525 5.600 -1.105 Descending Tampa TRACON
Sat 18h46:45 28.0000 -82.4167 192° South 276 512 5.000 -496 Descending Tampa TRACON
Sat 18h47:51 27.9167 -82.4333 190° South 241 446 4.600 -667 Descending Tampa TRACON
Sat 18h48:51 27.8500 -82.4500 192° South 233 431 3.600 -857 Descending Tampa TRACON
Sat 18h49:57 27.8500 -82.5333 270° West 210 389 2.800 -909 Descending Tampa TRACON
Sat 18h51:03 27.9000 -82.5500 344° North 175 323 1.600 -1.100 Descending Tampa TRACON
Sat 18h51:57 27.9333 -82.5500 360° North 151 280 600 -1.111 Descending Tampa TRACON

Login

Don't have an account? Register now (free) for customized features, flight alerts, and more!